Welcome to Northern Hawkes Bay. New Zealand.
PWS Header
      nz Flag



Hit Counter


W3C Valid W3C Valid logo


    Wairoa

Select any of the Stations below to visit their websites.










Historic Data from Weather Underground
Select the location of interest below. Wairoa is the default. Please have patience, this Data is slow to load in.
Northern Hawkes Bay Historical Data
Daily Summary for January 12, 2017 Units:  English    Metric   Both
« Previous Day
Next Day »
Daily Weekly Monthly Yearly Custom
  High: Low: Average:
Temperature: 87.4 °F 57.9 °F 75.2 °F
Dew Point: 57.7 °F 45 °F 49.8 °F
Humidity: 72% 25% 43%
Wind Speed: 16.8mph 0.7mph 7.4mph
Wind Gust: 28.2mph - -
Wind- - NW
Pressure: 29.8 in 29.6 in -
Precipitation: 0 in    
Historical Graphs
 
 
Tabular Data for January 12, 2017
Time Temperature Dew Point Pressure Wind Wind Speed Wind Gust Humidity Rainfall Rate (Hourly) solar
00:01 71.6 °F 47.3 °F 29.8 in NNW 9.8 mph 14.5 mph 42% 0 in 0 W/m2
00:06 71.4 °F 47.8 °F 29.8 in NNW 8.3 mph 12.1 mph 43% 0 in 0 W/m2
00:11 71.2 °F 47.7 °F 29.8 in NNW 6 mph 14.5 mph 43% 0 in 0 W/m2
00:16 71.1 °F 48 °F 29.8 in NNW 6.9 mph 14.5 mph 44% 0 in 0 W/m2
00:21 70.9 °F 47.8 °F 29.8 in NNW 6 mph 13.6 mph 44% 0 in 0 W/m2
00:26 70.7 °F 47.7 °F 29.8 in NW 4.5 mph 10.7 mph 44% 0 in 0 W/m2
00:31 70.5 °F 47.7 °F 29.8 in NW 2.2 mph 9.2 mph 44% 0 in 0 W/m2
00:36 70.2 °F 47.3 °F 29.8 in NW 0.7 mph 9.2 mph 44% 0 in 0 W/m2
00:41 69.6 °F 46.8 °F 29.8 in NNW 1.6 mph 6.9 mph 44% 0 in 0 W/m2
00:46 69.1 °F 46.9 °F 29.8 in North 1.6 mph 4.5 mph 45% 0 in 0 W/m2
00:51 68.9 °F 46.8 °F 29.8 in NNW 3.1 mph 6 mph 45% 0 in 0 W/m2
00:56 68.9 °F 46.8 °F 29.8 in NNW 2.2 mph 6 mph 45% 0 in 0 W/m2
01:01 68.7 °F 46.6 °F 29.8 in NNW 4.5 mph 7.6 mph 45% 0 in 0 W/m2
01:06 68.5 °F 46.4 °F 29.8 in NNW 3.1 mph 7.6 mph 45% 0 in 0 W/m2
01:11 68.4 °F 46.8 °F 29.8 in NNW 2.2 mph 7.6 mph 46% 0 in 0 W/m2
01:16 68.2 °F 46.6 °F 29.8 in North 3.1 mph 6 mph 46% 0 in 0 W/m2
01:22 68.4 °F 46.8 °F 29.8 in North 3.8 mph 7.6 mph 46% 0 in 0 W/m2
01:27 68 °F 46.6 °F 29.8 in North 4.5 mph 7.6 mph 46% 0 in 0 W/m2
01:32 67.5 °F 47.1 °F 29.8 in North 5.4 mph 9.2 mph 48% 0 in 0 W/m2
01:37 67.1 °F 46.8 °F 29.8 in NNW 3.8 mph 9.2 mph 48% 0 in 0 W/m2
01:42 67.1 °F 46.8 °F 29.8 in NNW 5.4 mph 12.1 mph 48% 0 in 0 W/m2
01:47 67.5 °F 46.6 °F 29.8 in NNW 6.9 mph 12.1 mph 47% 0 in 0 W/m2
01:52 67.5 °F 46.6 °F 29.8 in NNW 4.5 mph 9.8 mph 47% 0 in 0 W/m2
01:57 67.1 °F 46.2 °F 29.8 in North 3.1 mph 9.8 mph 47% 0 in 0 W/m2
02:02 66.9 °F 46 °F 29.8 in North 4.5 mph 8.3 mph 47% 0 in 0 W/m2
02:07 68.4 °F 45 °F 29.8 in NNW 9.2 mph 15.2 mph 43% 0 in 0 W/m2
02:12 69.1 °F 45.7 °F 29.8 in NNW 9.2 mph 15.2 mph 43% 0 in 0 W/m2
02:17 69.3 °F 45.9 °F 29.8 in NNW 6.9 mph 16.8 mph 43% 0 in 0 W/m2
02:22 68.9 °F 46 °F 29.8 in NNW 9.2 mph 16.8 mph 44% 0 in 0 W/m2
02:27 68.5 °F 46.4 °F 29.8 in NNW 7.6 mph 15.9 mph 45% 0 in 0 W/m2
02:32 68.4 °F 46.8 °F 29.8 in NNW 5.4 mph 13.6 mph 46% 0 in 0 W/m2
02:37 68.2 °F 46.6 °F 29.8 in NNW 5.4 mph 13 mph 46% 0 in 0 W/m2
02:42 68 °F 46.9 °F 29.8 in NNW 8.3 mph 13 mph 47% 0 in 0 W/m2
02:47 68 °F 46.9 °F 29.8 in NNW 7.6 mph 15.2 mph 47% 0 in 0 W/m2
02:52 67.8 °F 47.5 °F 29.8 in NNW 8.3 mph 15.2 mph 48% 0 in 0 W/m2
02:57 67.6 °F 47.8 °F 29.8 in North 6.9 mph 13 mph 49% 0 in 0 W/m2
03:02 67.8 °F 48.6 °F 29.8 in NNW 7.6 mph 13 mph 50% 0 in 0 W/m2
03:07 67.8 °F 48.6 °F 29.8 in North 7.6 mph 14.5 mph 50% 0 in 0 W/m2
03:12 67.8 °F 48 °F 29.8 in North 8.3 mph 14.5 mph 49% 0 in 0 W/m2
03:17 67.8 °F 48 °F 29.8 in NNW 6 mph 13.6 mph 49% 0 in 0 W/m2
03:22 67.6 °F 48.4 °F 29.8 in NW 9.8 mph 15.9 mph 50% 0 in 0 W/m2
03:27 67.8 °F 48 °F 29.8 in NW 8.3 mph 15.9 mph 49% 0 in 0 W/m2
03:32 67.8 °F 48 °F 29.8 in NNW 6 mph 13.6 mph 49% 0 in 0 W/m2
03:37 67.6 °F 47.8 °F 29.8 in North 4.5 mph 11.4 mph 49% 0 in 0 W/m2
03:42 67.6 °F 47.8 °F 29.8 in NNE 3.1 mph 8.3 mph 49% 0 in 0 W/m2
03:47 67.5 °F 47.7 °F 29.8 in North 1.6 mph 7.6 mph 49% 0 in 0 W/m2
03:52 67.1 °F 47.3 °F 29.8 in NNW 1.6 mph 5.4 mph 49% 0 in 0 W/m2
03:57 66.9 °F 47.7 °F 29.8 in NNW 1.6 mph 4.5 mph 50% 0 in 0 W/m2
04:02 66.6 °F 47.5 °F 29.8 in NNW 2.2 mph 3.8 mph 50% 0 in 0 W/m2
04:07 65.7 °F 48 °F 29.8 in NNW 1.6 mph 4.5 mph 53% 0 in 0 W/m2
04:12 65.3 °F 48.2 °F 29.8 in NW 1.6 mph 4.5 mph 54% 0 in 0 W/m2
04:17 64.9 °F 48.4 °F 29.8 in NW 1.6 mph 3.8 mph 55% 0 in 0 W/m2
04:22 64.4 °F 47.8 °F 29.8 in NW 2.2 mph 3.8 mph 55% 0 in 0 W/m2
04:27 63.9 °F 47.8 °F 29.8 in NW 2.2 mph 3.8 mph 56% 0 in 0 W/m2
04:32 63.3 °F 48.4 °F 29.7 in NNW 3.1 mph 4.5 mph 58% 0 in 0 W/m2
04:37 63 °F 48 °F 29.7 in NW 3.1 mph 4.5 mph 58% 0 in 0 W/m2
04:42 62.2 °F 48.6 °F 29.7 in NW 0.7 mph 4.5 mph 61% 0 in 0 W/m2
04:47 61.9 °F 48.7 °F 29.7 in NNW 3.1 mph 4.5 mph 62% 0 in 0 W/m2
04:52 61.3 °F 49.1 °F 29.7 in NNW 1.6 mph 4.5 mph 64% 0 in 0 W/m2
04:57 60.8 °F 48.6 °F 29.7 in NW 0.7 mph 4.5 mph 64% 0 in 0 W/m2
05:02 60.4 °F 49.5 °F 29.7 in NNW 1.6 mph 3.1 mph 67% 0 in 0 W/m2
05:07 60.3 °F 49.6 °F 29.7 in NNW 1.6 mph 3.8 mph 68% 0 in 0 W/m2
05:12 60.1 °F 49.5 °F 29.7 in NW 0.7 mph 3.8 mph 68% 0 in 0 W/m2
05:17 59.9 °F 49.3 °F 29.7 in NW 0.7 mph 3.1 mph 68% 0 in 0 W/m2
05:22 59.7 °F 49.3 °F 29.7 in NW 2.2 mph 3.8 mph 68% 0 in 0 W/m2
05:27 59.7 °F 49.3 °F 29.7 in NW 3.1 mph 3.8 mph 68% 0 in 0 W/m2
05:32 59.5 °F 48.9 °F 29.7 in NNW 3.1 mph 4.5 mph 68% 0 in 0 W/m2
05:37 59.4 °F 49.3 °F 29.7 in NNW 3.8 mph 5.4 mph 69% 0 in 0 W/m2
05:43 59.4 °F 49.3 °F 29.7 in NNW 2.2 mph 5.4 mph 69% 0 in 0 W/m2
05:48 59.2 °F 48.9 °F 29.7 in NNW 1.6 mph 5.4 mph 69% 0 in 0 W/m2
05:53 59 °F 48.9 °F 29.7 in NNW 0.7 mph 3.8 mph 69% 0 in 1 W/m2
05:58 58.8 °F 49.1 °F 29.7 in NNW 1.6 mph 4.5 mph 70% 0 in 3 W/m2
06:03 58.6 °F 49.3 °F 29.7 in North 1.6 mph 4.5 mph 71% 0 in 6 W/m2
06:08 58.5 °F 49.1 °F 29.7 in North 1.6 mph 3.8 mph 71% 0 in 9 W/m2
06:13 58.1 °F 48.7 °F 29.7 in North 2.2 mph 3.8 mph 71% 0 in 12 W/m2
06:18 57.9 °F 48.9 °F 29.7 in NNW 0.7 mph 3.8 mph 72% 0 in 14 W/m2
06:23 57.9 °F 48.9 °F 29.7 in NNW 1.6 mph 3.8 mph 72% 0 in 17 W/m2
06:28 58.1 °F 48.7 °F 29.7 in NW 1.6 mph 3.1 mph 71% 0 in 22 W/m2
06:33 58.6 °F 48.9 °F 29.7 in NW 2.2 mph 3.8 mph 70% 0 in 24 W/m2
06:38 59 °F 48.6 °F 29.7 in NNW 2.2 mph 3.8 mph 68% 0 in 43 W/m2
06:43 59.9 °F 48.9 °F 29.7 in NNW 2.2 mph 3.8 mph 67% 0 in 58 W/m2
06:48 61 °F 49.1 °F 29.7 in NNW 1.6 mph 3.8 mph 65% 0 in 67 W/m2
06:53 62.2 °F 49.8 °F 29.7 in NNW 0.7 mph 3.8 mph 64% 0 in 77 W/m2
06:58 63 °F 49.3 °F 29.7 in NNW 1.6 mph 4.5 mph 61% 0 in 87 W/m2
07:03 64.2 °F 49.6 °F 29.7 in NNW 1.6 mph 4.5 mph 59% 0 in 97 W/m2
07:08 65.3 °F 50.2 °F 29.7 in NW 0.7 mph 3.1 mph 58% 0 in 109 W/m2
07:13 66.4 °F 49.3 °F 29.7 in NW 2.2 mph 4.5 mph 54% 0 in 123 W/m2
07:18 67.5 °F 49.3 °F 29.7 in NW 2.2 mph 5.4 mph 52% 0 in 138 W/m2
07:23 68.5 °F 48 °F 29.7 in NNW 1.6 mph 5.4 mph 48% 0 in 152 W/m2
07:28 69.4 °F 48.4 °F 29.7 in NNW 2.2 mph 5.4 mph 47% 0 in 166 W/m2
07:33 70.3 °F 48 °F 29.7 in NNW 2.2 mph 4.5 mph 45% 0 in 180 W/m2
07:38 71.2 °F 47.7 °F 29.7 in NNW 2.2 mph 4.5 mph 43% 0 in 193 W/m2
07:43 72.3 °F 48 °F 29.7 in NNW 1.6 mph 4.5 mph 42% 0 in 207 W/m2
07:48 73.4 °F 48.4 °F 29.7 in NNW 3.1 mph 4.5 mph 41% 0 in 220 W/m2
07:53 73.9 °F 48 °F 29.7 in NNW 2.2 mph 6 mph 40% 0 in 235 W/m2
07:58 73.6 °F 48.6 °F 29.7 in NNW 3.8 mph 6 mph 41% 0 in 248 W/m2
08:03 72.9 °F 47.8 °F 29.7 in NW 2.2 mph 7.6 mph 41% 0 in 261 W/m2
08:08 73 °F 48 °F 29.7 in NW 5.4 mph 9.8 mph 41% 0 in 276 W/m2
08:13 73.6 °F 47.1 °F 29.7 in NW 8.3 mph 13 mph 39% 0 in 307 W/m2
08:18 74.1 °F 46.9 °F 29.7 in NW 5.4 mph 13 mph 38% 0 in 305 W/m2
08:23 74.3 °F 45.7 °F 29.7 in WNW 6.9 mph 14.5 mph 36% 0 in 328 W/m2
08:28 74.3 °F 46.4 °F 29.7 in NW 6 mph 18.3 mph 37% 0 in 336 W/m2
08:33 74.3 °F 45.7 °F 29.7 in NW 8.3 mph 21.3 mph 36% 0 in 354 W/m2
08:38 74.7 °F 46.8 °F 29.7 in NW 6.9 mph 21.3 mph 37% 0 in 370 W/m2
08:43 75.6 °F 46 °F 29.7 in NW 9.2 mph 15.2 mph 35% 0 in 388 W/m2
08:48 75.6 °F 46 °F 29.7 in NW 10.7 mph 17.4 mph 35% 0 in 409 W/m2
08:53 75.4 °F 46.6 °F 29.7 in NW 8.3 mph 19.7 mph 36% 0 in 425 W/m2
08:58 75.7 °F 45.3 °F 29.7 in NW 9.2 mph 19.7 mph 34% 0 in 440 W/m2
09:03 76.1 °F 47.1 °F 29.7 in NW 7.6 mph 17.4 mph 36% 0 in 459 W/m2
09:08 76.6 °F 46.9 °F 29.7 in NW 4.5 mph 11.4 mph 35% 0 in 480 W/m2
09:13 76.8 °F 47.1 °F 29.7 in NW 6.9 mph 12.1 mph 35% 0 in 496 W/m2
09:18 76.5 °F 46.8 °F 29.7 in NNW 9.8 mph 14.5 mph 35% 0 in 519 W/m2
09:23 76.5 °F 46 °F 29.7 in NNW 15.2 mph 18.3 mph 34% 0 in 552 W/m2
09:28 76.8 °F 47.8 °F 29.7 in NNW 7.6 mph 18.3 mph 36% 0 in 555 W/m2
09:33 77.2 °F 46.8 °F 29.7 in NW 7.6 mph 18.3 mph 34% 0 in 575 W/m2
09:38 77.2 °F 46.8 °F 29.7 in NW 7.6 mph 17.4 mph 34% 0 in 601 W/m2
09:43 77.7 °F 47.8 °F 29.7 in NW 3.1 mph 15.2 mph 35% 0 in 615 W/m2
09:48 77.7 °F 46.4 °F 29.7 in WNW 7.6 mph 19.7 mph 33% 0 in 646 W/m2
09:53 77.5 °F 46.9 °F 29.7 in WNW 9.8 mph 19.7 mph 34% 0 in 650 W/m2
09:58 77.7 °F 47.1 °F 29.7 in NW 9.2 mph 17.4 mph 34% 0 in 679 W/m2
10:03 78.4 °F 47.8 °F 29.7 in NW 11.4 mph 16.8 mph 34% 0 in 715 W/m2
10:08 78.3 °F 47.7 °F 29.7 in NNW 12.1 mph 23.5 mph 34% 0 in 741 W/m2
10:13 78.1 °F 46.8 °F 29.7 in NW 9.8 mph 23.5 mph 33% 0 in 745 W/m2
10:18 77.9 °F 47.3 °F 29.7 in NW 13 mph 21.3 mph 34% 0 in 760 W/m2
10:23 78.1 °F 46.8 °F 29.7 in WNW 11.4 mph 22.1 mph 33% 0 in 790 W/m2
10:28 78.4 °F 47.8 °F 29.7 in NW 9.8 mph 22.1 mph 34% 0 in 801 W/m2
10:33 78.4 °F 47.8 °F 29.7 in NNW 9.2 mph 23.5 mph 34% 0 in 811 W/m2
10:38 78.4 °F 47.8 °F 29.7 in NW 13 mph 23.5 mph 34% 0 in 824 W/m2
10:44 79.2 °F 47.7 °F 29.7 in NW 6 mph 18.3 mph 33% 0 in 842 W/m2
10:49 79.3 °F 47.8 °F 29.7 in NNW 12.1 mph 15.9 mph 33% 0 in 854 W/m2
10:54 79.5 °F 47.8 °F 29.7 in NNW 11.4 mph 16.8 mph 33% 0 in 863 W/m2
10:59 79.2 °F 48.4 °F 29.7 in NW 7.6 mph 16.8 mph 34% 0 in 872 W/m2
11:04 79.2 °F 47.7 °F 29.7 in NW 8.3 mph 16.8 mph 33% 0 in 880 W/m2
11:09 79.5 °F 48.7 °F 29.7 in NNW 6 mph 16.8 mph 34% 0 in 889 W/m2
11:14 80.2 °F 49.5 °F 29.7 in NNW 6.9 mph 15.9 mph 34% 0 in 907 W/m2
11:19 81.3 °F 48.7 °F 29.7 in WNW 9.8 mph 13 mph 32% 0 in 924 W/m2
11:24 81 °F 47.5 °F 29.7 in NW 6 mph 13 mph 31% 0 in 930 W/m2
11:29 81.1 °F 47.7 °F 29.7 in NW 4.5 mph 13 mph 31% 0 in 938 W/m2
11:34 82 °F 48.6 °F 29.7 in WNW 6.9 mph 13 mph 31% 0 in 953 W/m2
11:39 81.9 °F 48.4 °F 29.7 in NW 5.4 mph 14.5 mph 31% 0 in 955 W/m2
11:44 82.2 °F 49.5 °F 29.7 in WNW 7.6 mph 14.5 mph 32% 0 in 963 W/m2
11:49 82.4 °F 50.5 °F 29.7 in WNW 11.4 mph 16.8 mph 33% 0 in 965 W/m2
11:54 82.6 °F 48.9 °F 29.7 in WNW 8.3 mph 17.4 mph 31% 0 in 969 W/m2
11:59 82.6 °F 47.1 °F 29.7 in WNW 13.6 mph 18.3 mph 29% 0 in 966 W/m2
12:04 82.4 °F 48.7 °F 29.7 in NW 3.8 mph 18.3 mph 31% 0 in 975 W/m2
12:09 83.3 °F 49.6 °F 29.7 in NW 3.8 mph 18.3 mph 31% 0 in 982 W/m2
12:14 84 °F 49.3 °F 29.7 in NW 7.6 mph 17.4 mph 30% 0 in 988 W/m2
12:19 83.7 °F 49.8 °F 29.7 in WNW 5.4 mph 17.4 mph 31% 0 in 990 W/m2
12:24 83.7 °F 49.8 °F 29.7 in NNW 5.4 mph 17.4 mph 31% 0 in 990 W/m2
12:29 83.3 °F 51.3 °F 29.7 in North 7.6 mph 17.4 mph 33% 0 in 986 W/m2
12:34 83.3 °F 50.4 °F 29.7 in North 9.8 mph 16.8 mph 32% 0 in 983 W/m2
12:39 83.5 °F 50.5 °F 29.7 in NNW 8.3 mph 16.8 mph 32% 0 in 980 W/m2
12:44 83.5 °F 50.5 °F 29.7 in NNW 8.3 mph 15.9 mph 32% 0 in 980 W/m2
12:49 84 °F 50.2 °F 29.7 in NNW 9.8 mph 17.4 mph 31% 0 in 981 W/m2
12:54 83.7 °F 49.8 °F 29.7 in NNW 8.3 mph 17.4 mph 31% 0 in 977 W/m2
12:59 83.7 °F 49.8 °F 29.7 in North 9.2 mph 16.8 mph 31% 0 in 971 W/m2
13:04 83.3 °F 49.6 °F 29.7 in North 6 mph 19 mph 31% 0 in 971 W/m2
13:09 83.1 °F 50.4 °F 29.7 in North 8.3 mph 19 mph 32% 0 in 969 W/m2
13:14 83.1 °F 51.1 °F 29.7 in NNW 13 mph 19 mph 33% 0 in 967 W/m2
13:19 84 °F 52 °F 29.7 in NNW 12.1 mph 19 mph 33% 0 in 968 W/m2
13:24 84.4 °F 52.2 °F 29.7 in North 12.1 mph 19 mph 33% 0 in 961 W/m2
13:29 84 °F 51.1 °F 29.7 in NNW 7.6 mph 19 mph 32% 0 in 962 W/m2
13:34 84.4 °F 49.6 °F 29.7 in NNW 9.2 mph 18.3 mph 30% 0 in 956 W/m2
13:39 85.3 °F 50.4 °F 29.7 in NNW 10.7 mph 18.3 mph 30% 0 in 958 W/m2
13:44 85.6 °F 50.7 °F 29.7 in NNW 7.6 mph 17.4 mph 30% 0 in 954 W/m2
13:49 85.8 °F 49.8 °F 29.7 in NNW 9.8 mph 17.4 mph 29% 0 in 957 W/m2
13:54 86.2 °F 47.3 °F 29.7 in NNW 7.6 mph 15.9 mph 26% 0 in 953 W/m2
14:00 85.6 °F 46.9 °F 29.7 in NNW 7.6 mph 19.7 mph 26% 0 in 944 W/m2
14:05 86 °F 47.1 °F 29.7 in NW 6.9 mph 19.7 mph 26% 0 in 940 W/m2
14:22 86.4 °F 48.6 °F 29.7 in NNW 7.6 mph 21.3 mph 27% 0 in 921 W/m2
14:27 86 °F 47.1 °F 29.7 in NNW 7.6 mph 19.7 mph 26% 0 in 909 W/m2
14:32 85.8 °F 48 °F 29.7 in NNW 13.6 mph 19.7 mph 27% 0 in 899 W/m2
14:37 85.3 °F 48.6 °F 29.7 in NNW 9.2 mph 20.6 mph 28% 0 in 889 W/m2
14:42 85.8 °F 49.8 °F 29.7 in NW 9.2 mph 20.6 mph 29% 0 in 886 W/m2
14:47 86 °F 48.2 °F 29.6 in NW 8.3 mph 18.3 mph 27% 0 in 880 W/m2
14:52 85.6 °F 48.7 °F 29.7 in NW 13.6 mph 19.7 mph 28% 0 in 870 W/m2
14:57 86.2 °F 48.4 °F 29.6 in NW 13 mph 20.6 mph 27% 0 in 866 W/m2
15:02 86.4 °F 49.5 °F 29.7 in NW 11.4 mph 20.6 mph 28% 0 in 853 W/m2
15:07 86.5 °F 49.6 °F 29.7 in NNW 9.2 mph 19.7 mph 28% 0 in 845 W/m2
15:12 86.7 °F 49.8 °F 29.6 in NNW 7.6 mph 19 mph 28% 0 in 761 W/m2
15:17 86.2 °F 47.3 °F 29.6 in NNW 10.7 mph 19 mph 26% 0 in 832 W/m2
15:22 86 °F 48.2 °F 29.6 in NNW 14.5 mph 23.5 mph 27% 0 in 805 W/m2
15:27 85.8 °F 48.9 °F 29.6 in NNW 13.6 mph 23.5 mph 28% 0 in 801 W/m2
15:32 86.2 °F 48.4 °F 29.6 in NW 9.8 mph 22.1 mph 27% 0 in 783 W/m2
15:37 86.7 °F 48.7 °F 29.6 in NW 10.7 mph 22.1 mph 27% 0 in 779 W/m2
15:42 86.5 °F 49.6 °F 29.6 in NW 9.2 mph 21.3 mph 28% 0 in 770 W/m2
15:47 86.5 °F 49.6 °F 29.6 in NNW 6 mph 21.3 mph 28% 0 in 756 W/m2
15:52 86.2 °F 47.3 °F 29.6 in NNW 13.6 mph 22.1 mph 26% 0 in 736 W/m2
15:57 86.2 °F 48.4 °F 29.6 in NW 13.6 mph 22.8 mph 27% 0 in 734 W/m2
16:02 86.2 °F 48.4 °F 29.6 in NW 9.8 mph 24.4 mph 27% 0 in 723 W/m2
16:07 86.7 °F 47.8 °F 29.6 in NW 12.1 mph 24.4 mph 26% 0 in 714 W/m2
16:12 86.4 °F 46.4 °F 29.6 in NNW 13.6 mph 21.3 mph 25% 0 in 699 W/m2
16:17 86 °F 46 °F 29.6 in NNW 13 mph 25.9 mph 25% 0 in 677 W/m2
16:22 86.2 °F 46.2 °F 29.6 in NW 9.8 mph 25.9 mph 25% 0 in 671 W/m2
16:27 86 °F 46 °F 29.6 in NW 12.1 mph 26.6 mph 25% 0 in 661 W/m2
16:32 86.5 °F 46.6 °F 29.6 in WNW 13.6 mph 26.6 mph 25% 0 in 642 W/m2
16:37 86.9 °F 46.9 °F 29.6 in NW 15.9 mph 22.8 mph 25% 0 in 632 W/m2
16:42 86.7 °F 46.8 °F 29.6 in NW 11.4 mph 22.8 mph 25% 0 in 615 W/m2
16:47 87.4 °F 47.3 °F 29.6 in NW 13 mph 22.8 mph 25% 0 in 595 W/m2
16:52 86.9 °F 46.9 °F 29.6 in NW 9.2 mph 20.6 mph 25% 0 in 586 W/m2
16:57 86.7 °F 46.8 °F 29.6 in WNW 15.2 mph 28.2 mph 25% 0 in 568 W/m2
17:02 86.5 °F 47.7 °F 29.6 in NW 12.1 mph 28.2 mph 26% 0 in 555 W/m2
17:07 85.8 °F 48 °F 29.6 in NW 14.5 mph 22.1 mph 27% 0 in 527 W/m2
17:13 86 °F 48.2 °F 29.6 in WNW 8.3 mph 22.1 mph 27% 0 in 524 W/m2
17:18 85.5 °F 48.7 °F 29.6 in NW 11.4 mph 25.9 mph 28% 0 in 494 W/m2
17:23 85.3 °F 48.6 °F 29.6 in NW 14.5 mph 25.9 mph 28% 0 in 497 W/m2
17:28 85.6 °F 48.7 °F 29.6 in NW 13 mph 24.4 mph 28% 0 in 479 W/m2
17:33 85.5 °F 48.7 °F 29.6 in NNW 16.8 mph 24.4 mph 28% 0 in 456 W/m2
17:38 85.3 °F 48.6 °F 29.6 in NNW 14.5 mph 24.4 mph 28% 0 in 439 W/m2
17:43 85.3 °F 49.5 °F 29.6 in NW 14.5 mph 24.4 mph 29% 0 in 432 W/m2
17:48 85.3 °F 49.5 °F 29.6 in NW 9.2 mph 22.1 mph 29% 0 in 416 W/m2
17:53 84.9 °F 50.2 °F 29.6 in NNW 13 mph 22.1 mph 30% 0 in 396 W/m2
17:58 84.6 °F 49.8 °F 29.6 in NW 14.5 mph 22.8 mph 30% 0 in 380 W/m2
18:03 84.7 °F 50.7 °F 29.6 in NNW 13.6 mph 22.8 mph 31% 0 in 347 W/m2
18:08 84.2 °F 51.3 °F 29.6 in NNW 7.6 mph 21.3 mph 32% 0 in 336 W/m2
18:13 83.7 °F 52.3 °F 29.6 in NNW 7.6 mph 22.8 mph 34% 0 in 321 W/m2
18:18 83.7 °F 52.3 °F 29.6 in NW 9.2 mph 22.8 mph 34% 0 in 325 W/m2
18:23 84.2 °F 52 °F 29.6 in NW 10.7 mph 17.4 mph 33% 0 in 245 W/m2
18:28 84.2 °F 52.9 °F 29.6 in NW 7.6 mph 18.3 mph 34% 0 in 298 W/m2
18:33 84.2 °F 52 °F 29.6 in NW 11.4 mph 18.3 mph 33% 0 in 286 W/m2
18:38 83.7 °F 53.2 °F 29.6 in NW 10.7 mph 18.3 mph 35% 0 in 264 W/m2
18:43 84 °F 53.4 °F 29.6 in NW 8.3 mph 18.3 mph 35% 0 in 260 W/m2
18:48 83.7 °F 53.2 °F 29.6 in NW 11.4 mph 17.4 mph 35% 0 in 251 W/m2
18:53 83.5 °F 53.1 °F 29.6 in NW 12.1 mph 20.6 mph 35% 0 in 236 W/m2
18:58 82.9 °F 53.2 °F 29.6 in NW 11.4 mph 20.6 mph 36% 0 in 224 W/m2
19:03 82.2 °F 51.1 °F 29.6 in NW 10.7 mph 22.1 mph 34% 0 in 212 W/m2
19:08 82 °F 50.9 °F 29.6 in NW 12.1 mph 22.1 mph 34% 0 in 204 W/m2
19:13 81.9 °F 51.6 °F 29.6 in NW 9.2 mph 18.3 mph 35% 0 in 164 W/m2
19:18 81.7 °F 52.2 °F 29.6 in NW 9.8 mph 17.4 mph 36% 0 in 183 W/m2
19:23 81.5 °F 52 °F 29.6 in NW 11.4 mph 19 mph 36% 0 in 176 W/m2
19:28 81 °F 52.3 °F 29.6 in NW 9.2 mph 19 mph 37% 0 in 151 W/m2
19:33 80.4 °F 53.2 °F 29.6 in NW 13 mph 19 mph 39% 0 in 109 W/m2
19:38 80.1 °F 53.6 °F 29.6 in NW 9.2 mph 19 mph 40% 0 in 136 W/m2
19:43 80.2 °F 54.3 °F 29.6 in NW 6.9 mph 19 mph 41% 0 in 78 W/m2
19:48 79.3 °F 54.3 °F 29.6 in NW 7.6 mph 21.3 mph 42% 0 in 110 W/m2
19:53 78.8 °F 53.8 °F 29.6 in NW 11.4 mph 21.3 mph 42% 0 in 35 W/m2
19:58 78.1 °F 54.3 °F 29.6 in NW 9.8 mph 16.8 mph 44% 0 in 37 W/m2
20:03 78.3 °F 54.7 °F 29.6 in NW 9.2 mph 15.9 mph 44% 0 in 56 W/m2
20:08 78.3 °F 54.7 °F 29.6 in WNW 6.9 mph 17.4 mph 44% 0 in 59 W/m2
20:13 78.3 °F 55.2 °F 29.6 in NW 6.9 mph 17.4 mph 45% 0 in 37 W/m2
20:18 77.4 °F 54.3 °F 29.6 in NNW 6.9 mph 13.6 mph 45% 0 in 16 W/m2
20:23 76.6 °F 54.9 °F 29.6 in NW 13 mph 21.3 mph 47% 0 in 12 W/m2
20:28 76.3 °F 55.2 °F 29.6 in NW 7.6 mph 25.1 mph 48% 0 in 8 W/m2
20:33 75.9 °F 55.4 °F 29.6 in NW 7.6 mph 25.1 mph 49% 0 in 4 W/m2
20:38 75.6 °F 55 °F 29.6 in NW 6.9 mph 18.3 mph 49% 0 in 2 W/m2
20:43 75.2 °F 55.2 °F 29.6 in NW 9.8 mph 15.9 mph 50% 0 in 0 W/m2
20:48 75 °F 55.8 °F 29.6 in NW 7.6 mph 16.8 mph 51% 0 in 0 W/m2
20:53 74.7 °F 55.4 °F 29.6 in NNW 6.9 mph 19 mph 51% 0 in 0 W/m2
20:58 74.7 °F 55.9 °F 29.6 in NNW 7.6 mph 19 mph 52% 0 in 0 W/m2
21:03 74.3 °F 55.6 °F 29.6 in NNW 7.6 mph 15.2 mph 52% 0 in 0 W/m2
21:08 74.1 °F 55.9 °F 29.6 in NNW 11.4 mph 15.9 mph 53% 0 in 0 W/m2
21:13 73.9 °F 55.8 °F 29.7 in NNW 5.4 mph 15.9 mph 53% 0 in 0 W/m2
21:18 73.8 °F 56.1 °F 29.6 in NNW 6.9 mph 13.6 mph 54% 0 in 0 W/m2
21:23 73.4 °F 55.8 °F 29.7 in NNW 7.6 mph 13.6 mph 54% 0 in 0 W/m2
21:28 73.4 °F 55.8 °F 29.7 in NW 4.5 mph 13.6 mph 54% 0 in 0 W/m2
21:33 73.2 °F 55.6 °F 29.7 in NW 5.4 mph 13.6 mph 54% 0 in 0 W/m2
21:38 73 °F 55.4 °F 29.7 in NW 7.6 mph 13.6 mph 54% 0 in 0 W/m2
21:43 73 °F 55.4 °F 29.7 in NW 3.8 mph 14.5 mph 54% 0 in 0 W/m2
21:48 72.9 °F 55.8 °F 29.7 in NW 6 mph 14.5 mph 55% 0 in 0 W/m2
21:53 72.7 °F 55.6 °F 29.7 in NNW 5.4 mph 14.5 mph 55% 0 in 0 W/m2
21:58 72.5 °F 55.4 °F 29.7 in NNW 9.2 mph 10.7 mph 55% 0 in 0 W/m2
22:03 72.5 °F 55.9 °F 29.7 in NW 4.5 mph 16.8 mph 56% 0 in 0 W/m2
22:08 72.3 °F 55.8 °F 29.7 in NNW 7.6 mph 16.8 mph 56% 0 in 0 W/m2
22:13 72.1 °F 55.6 °F 29.7 in NNW 8.3 mph 13.6 mph 56% 0 in 0 W/m2
22:18 72 °F 55.9 °F 29.7 in NNW 8.3 mph 12.1 mph 57% 0 in 0 W/m2
22:23 72.1 °F 56.1 °F 29.7 in NNW 8.3 mph 19 mph 57% 0 in 0 W/m2
22:28 72 °F 55.9 °F 29.7 in NNW 9.8 mph 19 mph 57% 0 in 0 W/m2
22:33 72 °F 55.9 °F 29.7 in NNW 7.6 mph 16.8 mph 57% 0 in 0 W/m2
22:38 71.8 °F 55.8 °F 29.7 in NNW 6.9 mph 14.5 mph 57% 0 in 0 W/m2
22:43 71.6 °F 55.6 °F 29.7 in North 9.8 mph 13.6 mph 57% 0 in 0 W/m2
22:48 71.6 °F 55.6 °F 29.7 in North 8.3 mph 13.6 mph 57% 0 in 0 W/m2
22:53 71.4 °F 56.5 °F 29.7 in North 7.6 mph 13.6 mph 59% 0 in 0 W/m2
22:58 71.4 °F 56.5 °F 29.7 in NNW 6.9 mph 13 mph 59% 0 in 0 W/m2
23:03 71.4 °F 56.5 °F 29.7 in North 8.3 mph 14.5 mph 59% 0 in 0 W/m2
23:08 71.4 °F 56.5 °F 29.7 in North 6 mph 14.5 mph 59% 0 in 0 W/m2
23:13 71.2 °F 56.7 °F 29.7 in North 7.6 mph 12.1 mph 60% 0 in 0 W/m2
23:18 71.1 °F 56.5 °F 29.6 in North 7.6 mph 14.5 mph 60% 0 in 0 W/m2
23:23 71.2 °F 56.7 °F 29.6 in NNE 9.2 mph 15.2 mph 60% 0 in 0 W/m2
23:28 71.2 °F 57 °F 29.6 in North 9.2 mph 15.9 mph 61% 0 in 0 W/m2
23:33 71.2 °F 57 °F 29.6 in NNW 9.8 mph 15.9 mph 61% 0 in 0 W/m2
23:38 71.1 °F 57.4 °F 29.6 in North 8.3 mph 16.8 mph 62% 0 in 0 W/m2
23:43 71.1 °F 57.4 °F 29.6 in North 11.4 mph 16.8 mph 62% 0 in 0 W/m2
23:48 71.2 °F 57.6 °F 29.6 in North 13 mph 19.7 mph 62% 0 in 0 W/m2
23:53 71.2 °F 57.6 °F 29.6 in North 11.4 mph 21.3 mph 62% 0 in 0 W/m2
23:58 71.4 °F 57.7 °F 29.6 in North 7.6 mph 21.3 mph 62% 0 in 0 W/m2
Northern Hawkes Bay. New Zealand Historic Data
Compliments of Weather Underground - 2 mb